sensor_id;sensor_type;location;lat;lon;timestamp;temperature;humidity
35603;DHT22;21725;50.836;4.368;2023-03-24T00:02:43;13.00;99.90
35603;DHT22;21725;50.836;4.368;2023-03-24T00:05:45;13.10;99.90
35603;DHT22;21725;50.836;4.368;2023-03-24T00:08:53;13.00;99.90
35603;DHT22;21725;50.836;4.368;2023-03-24T00:12:02;13.00;99.90
35603;DHT22;21725;50.836;4.368;2023-03-24T00:15:06;13.10;99.90
35603;DHT22;21725;50.836;4.368;2023-03-24T00:18:07;13.10;99.90
35603;DHT22;21725;50.836;4.368;2023-03-24T00:21:10;13.00;99.90
35603;DHT22;21725;50.836;4.368;2023-03-24T00:24:12;13.00;99.90
35603;DHT22;21725;50.836;4.368;2023-03-24T00:27:13;13.00;99.90
35603;DHT22;21725;50.836;4.368;2023-03-24T00:30:16;13.10;99.90
35603;DHT22;21725;50.836;4.368;2023-03-24T00:33:17;13.10;99.90
35603;DHT22;21725;50.836;4.368;2023-03-24T00:36:20;13.20;99.90
35603;DHT22;21725;50.836;4.368;2023-03-24T00:39:25;13.20;99.90
35603;DHT22;21725;50.836;4.368;2023-03-24T00:42:26;13.20;99.90
35603;DHT22;21725;50.836;4.368;2023-03-24T00:45:27;13.20;99.90
35603;DHT22;21725;50.836;4.368;2023-03-24T00:48:29;13.20;99.90
35603;DHT22;21725;50.836;4.368;2023-03-24T00:51:38;13.20;99.90
35603;DHT22;21725;50.836;4.368;2023-03-24T00:54:39;13.20;99.90
35603;DHT22;21725;50.836;4.368;2023-03-24T00:57:44;13.20;99.90
35603;DHT22;21725;50.836;4.368;2023-03-24T01:00:55;13.30;99.90
35603;DHT22;21725;50.836;4.368;2023-03-24T01:03:56;13.30;99.90
35603;DHT22;21725;50.836;4.368;2023-03-24T01:06:59;13.30;99.90
35603;DHT22;21725;50.836;4.368;2023-03-24T01:10:00;13.40;99.90
35603;DHT22;21725;50.836;4.368;2023-03-24T01:13:01;13.40;99.90
35603;DHT22;21725;50.836;4.368;2023-03-24T01:16:03;13.40;99.90
35603;DHT22;21725;50.836;4.368;2023-03-24T01:19:07;13.50;99.90
35603;DHT22;21725;50.836;4.368;2023-03-24T01:22:11;13.50;99.90
35603;DHT22;21725;50.836;4.368;2023-03-24T01:25:21;13.50;99.90
35603;DHT22;21725;50.836;4.368;2023-03-24T01:28:27;13.60;99.90
35603;DHT22;21725;50.836;4.368;2023-03-24T01:31:27;13.60;99.90
35603;DHT22;21725;50.836;4.368;2023-03-24T01:34:28;13.60;99.90
35603;DHT22;21725;50.836;4.368;2023-03-24T01:37:29;13.70;99.90
35603;DHT22;21725;50.836;4.368;2023-03-24T01:40:31;13.60;99.90
35603;DHT22;21725;50.836;4.368;2023-03-24T01:43:33;13.60;99.90
35603;DHT22;21725;50.836;4.368;2023-03-24T01:46:34;13.60;99.90
35603;DHT22;21725;50.836;4.368;2023-03-24T01:49:40;13.70;99.90
35603;DHT22;21725;50.836;4.368;2023-03-24T01:52:41;13.70;99.90
35603;DHT22;21725;50.836;4.368;2023-03-24T01:55:44;13.70;99.90
35603;DHT22;21725;50.836;4.368;2023-03-24T01:58:51;13.60;99.90
35603;DHT22;21725;50.836;4.368;2023-03-24T02:01:53;13.60;99.90
35603;DHT22;21725;50.836;4.368;2023-03-24T02:05:05;13.60;99.90
35603;DHT22;21725;50.836;4.368;2023-03-24T02:11:12;13.30;99.90
35603;DHT22;21725;50.836;4.368;2023-03-24T02:14:13;13.50;99.90
35603;DHT22;21725;50.836;4.368;2023-03-24T02:27:12;12.80;99.90
35603;DHT22;21725;50.836;4.368;2023-03-24T02:33:52;12.60;99.90
35603;DHT22;21725;50.836;4.368;2023-03-24T02:41:02;12.30;99.90
35603;DHT22;21725;50.836;4.368;2023-03-24T02:44:39;12.10;99.90
35603;DHT22;21725;50.836;4.368;2023-03-24T02:57:34;11.70;99.90
35603;DHT22;21725;50.836;4.368;2023-03-24T03:00:45;11.80;99.90
35603;DHT22;21725;50.836;4.368;2023-03-24T03:03:51;11.90;99.90
35603;DHT22;21725;50.836;4.368;2023-03-24T03:06:55;11.90;99.90
35603;DHT22;21725;50.836;4.368;2023-03-24T03:10:01;11.90;99.90
35603;DHT22;21725;50.836;4.368;2023-03-24T03:13:10;11.90;99.90
35603;DHT22;21725;50.836;4.368;2023-03-24T03:16:17;11.80;99.90
35603;DHT22;21725;50.836;4.368;2023-03-24T03:19:24;11.70;99.90
35603;DHT22;21725;50.836;4.368;2023-03-24T03:22:35;11.70;99.90
35603;DHT22;21725;50.836;4.368;2023-03-24T03:25:42;11.60;99.90
35603;DHT22;21725;50.836;4.368;2023-03-24T03:28:50;11.50;99.90
35603;DHT22;21725;50.836;4.368;2023-03-24T03:32:00;11.50;99.90
35603;DHT22;21725;50.836;4.368;2023-03-24T03:35:15;11.30;99.90
35603;DHT22;21725;50.836;4.368;2023-03-24T03:38:34;11.20;99.90
35603;DHT22;21725;50.836;4.368;2023-03-24T03:41:37;11.20;99.90
35603;DHT22;21725;50.836;4.368;2023-03-24T03:44:39;11.20;99.90
35603;DHT22;21725;50.836;4.368;2023-03-24T03:47:40;11.20;99.90
35603;DHT22;21725;50.836;4.368;2023-03-24T03:50:41;11.10;99.90
35603;DHT22;21725;50.836;4.368;2023-03-24T03:53:54;11.20;99.90
35603;DHT22;21725;50.836;4.368;2023-03-24T03:57:00;11.30;99.90
35603;DHT22;21725;50.836;4.368;2023-03-24T04:00:03;11.30;99.90
35603;DHT22;21725;50.836;4.368;2023-03-24T04:06:40;11.30;99.90
35603;DHT22;21725;50.836;4.368;2023-03-24T04:13:20;11.30;99.90
35603;DHT22;21725;50.836;4.368;2023-03-24T04:33:04;11.30;99.90
35603;DHT22;21725;50.836;4.368;2023-03-24T04:36:19;11.30;99.90
35603;DHT22;21725;50.836;4.368;2023-03-24T04:39:24;11.20;99.90
35603;DHT22;21725;50.836;4.368;2023-03-24T04:42:33;11.10;99.90
35603;DHT22;21725;50.836;4.368;2023-03-24T04:45:35;11.10;99.90
35603;DHT22;21725;50.836;4.368;2023-03-24T04:48:36;11.20;99.90
35603;DHT22;21725;50.836;4.368;2023-03-24T04:51:37;11.20;99.90
35603;DHT22;21725;50.836;4.368;2023-03-24T04:54:38;11.20;99.90
35603;DHT22;21725;50.836;4.368;2023-03-24T04:57:39;11.20;99.90
35603;DHT22;21725;50.836;4.368;2023-03-24T05:00:39;11.10;99.90
35603;DHT22;21725;50.836;4.368;2023-03-24T05:27:07;10.40;99.90
35603;DHT22;21725;50.836;4.368;2023-03-24T05:30:08;10.40;99.90
35603;DHT22;21725;50.836;4.368;2023-03-24T05:33:09;10.50;99.90
35603;DHT22;21725;50.836;4.368;2023-03-24T05:36:11;10.60;99.90
35603;DHT22;21725;50.836;4.368;2023-03-24T05:39:12;10.60;99.90
35603;DHT22;21725;50.836;4.368;2023-03-24T05:42:16;10.50;99.90
35603;DHT22;21725;50.836;4.368;2023-03-24T05:45:17;10.40;99.90
35603;DHT22;21725;50.836;4.368;2023-03-24T05:48:18;10.40;99.90
35603;DHT22;21725;50.836;4.368;2023-03-24T05:51:18;10.40;99.90
35603;DHT22;21725;50.836;4.368;2023-03-24T05:54:24;10.40;99.90
35603;DHT22;21725;50.836;4.368;2023-03-24T05:57:25;10.40;99.90
35603;DHT22;21725;50.836;4.368;2023-03-24T06:00:30;10.30;99.90
35603;DHT22;21725;50.836;4.368;2023-03-24T06:03:31;10.40;99.90
35603;DHT22;21725;50.836;4.368;2023-03-24T06:06:34;10.30;99.90
35603;DHT22;21725;50.836;4.368;2023-03-24T06:09:37;10.30;99.90
35603;DHT22;21725;50.836;4.368;2023-03-24T06:12:41;10.40;99.90
35603;DHT22;21725;50.836;4.368;2023-03-24T06:15:42;10.50;99.90
35603;DHT22;21725;50.836;4.368;2023-03-24T06:18:45;10.60;99.90
35603;DHT22;21725;50.836;4.368;2023-03-24T06:21:52;10.60;99.90
35603;DHT22;21725;50.836;4.368;2023-03-24T06:24:53;10.70;99.90
35603;DHT22;21725;50.836;4.368;2023-03-24T06:27:56;10.80;99.90
35603;DHT22;21725;50.836;4.368;2023-03-24T06:31:04;10.90;99.90
35603;DHT22;21725;50.836;4.368;2023-03-24T06:34:05;10.90;99.90
35603;DHT22;21725;50.836;4.368;2023-03-24T06:37:06;11.00;99.90
35603;DHT22;21725;50.836;4.368;2023-03-24T06:40:08;11.00;99.90
35603;DHT22;21725;50.836;4.368;2023-03-24T06:43:12;10.80;99.90
35603;DHT22;21725;50.836;4.368;2023-03-24T06:46:13;10.80;99.90
35603;DHT22;21725;50.836;4.368;2023-03-24T06:49:14;10.90;99.90
35603;DHT22;21725;50.836;4.368;2023-03-24T06:52:15;11.20;99.90
35603;DHT22;21725;50.836;4.368;2023-03-24T06:55:15;11.60;99.90
35603;DHT22;21725;50.836;4.368;2023-03-24T06:58:18;11.70;99.90
35603;DHT22;21725;50.836;4.368;2023-03-24T07:01:21;11.80;99.90
35603;DHT22;21725;50.836;4.368;2023-03-24T07:04:27;12.60;99.90
35603;DHT22;21725;50.836;4.368;2023-03-24T07:07:36;12.50;99.90
35603;DHT22;21725;50.836;4.368;2023-03-24T07:10:38;12.20;99.90
35603;DHT22;21725;50.836;4.368;2023-03-24T07:13:39;11.90;99.90
35603;DHT22;21725;50.836;4.368;2023-03-24T07:16:40;11.70;99.90
35603;DHT22;21725;50.836;4.368;2023-03-24T07:19:41;11.70;99.90
35603;DHT22;21725;50.836;4.368;2023-03-24T07:22:44;13.20;99.90
35603;DHT22;21725;50.836;4.368;2023-03-24T07:25:47;14.60;99.90
35603;DHT22;21725;50.836;4.368;2023-03-24T07:28:48;14.90;99.90
35603;DHT22;21725;50.836;4.368;2023-03-24T07:31:51;14.60;99.90
35603;DHT22;21725;50.836;4.368;2023-03-24T07:34:53;14.00;99.90
35603;DHT22;21725;50.836;4.368;2023-03-24T07:38:01;13.60;99.90
35603;DHT22;21725;50.836;4.368;2023-03-24T07:41:02;13.20;99.90
35603;DHT22;21725;50.836;4.368;2023-03-24T07:44:03;12.80;99.90
35603;DHT22;21725;50.836;4.368;2023-03-24T07:47:04;12.10;99.90
35603;DHT22;21725;50.836;4.368;2023-03-24T07:50:06;12.00;99.90
35603;DHT22;21725;50.836;4.368;2023-03-24T07:53:09;12.10;99.90
35603;DHT22;21725;50.836;4.368;2023-03-24T07:56:10;12.30;99.90
35603;DHT22;21725;50.836;4.368;2023-03-24T07:59:11;12.50;99.90
35603;DHT22;21725;50.836;4.368;2023-03-24T08:05:29;12.60;99.90
35603;DHT22;21725;50.836;4.368;2023-03-24T08:08:30;12.20;99.90
35603;DHT22;21725;50.836;4.368;2023-03-24T08:11:31;12.20;99.90
35603;DHT22;21725;50.836;4.368;2023-03-24T08:14:35;12.10;99.90
35603;DHT22;21725;50.836;4.368;2023-03-24T08:17:36;12.40;99.90
35603;DHT22;21725;50.836;4.368;2023-03-24T08:20:37;12.50;99.90
35603;DHT22;21725;50.836;4.368;2023-03-24T08:23:37;12.20;99.90
35603;DHT22;21725;50.836;4.368;2023-03-24T08:26:38;12.10;99.90
35603;DHT22;21725;50.836;4.368;2023-03-24T08:29:42;12.10;99.90
35603;DHT22;21725;50.836;4.368;2023-03-24T08:32:49;12.00;99.90
35603;DHT22;21725;50.836;4.368;2023-03-24T08:35:51;12.30;99.90
35603;DHT22;21725;50.836;4.368;2023-03-24T08:38:57;12.60;99.90
35603;DHT22;21725;50.836;4.368;2023-03-24T08:41:59;12.60;99.90
35603;DHT22;21725;50.836;4.368;2023-03-24T08:45:00;12.70;99.90
35603;DHT22;21725;50.836;4.368;2023-03-24T08:48:03;12.90;99.90
35603;DHT22;21725;50.836;4.368;2023-03-24T08:51:16;12.90;99.90
35603;DHT22;21725;50.836;4.368;2023-03-24T08:54:16;12.70;99.90
35603;DHT22;21725;50.836;4.368;2023-03-24T08:57:17;12.80;99.90
35603;DHT22;21725;50.836;4.368;2023-03-24T09:00:25;12.80;99.90
35603;DHT22;21725;50.836;4.368;2023-03-24T09:03:26;13.00;99.90
35603;DHT22;21725;50.836;4.368;2023-03-24T09:06:27;13.00;99.90
35603;DHT22;21725;50.836;4.368;2023-03-24T09:09:28;13.10;99.90
35603;DHT22;21725;50.836;4.368;2023-03-24T09:12:29;13.10;99.90
35603;DHT22;21725;50.836;4.368;2023-03-24T09:15:30;13.20;99.90
35603;DHT22;21725;50.836;4.368;2023-03-24T09:18:31;13.20;99.90
35603;DHT22;21725;50.836;4.368;2023-03-24T09:21:32;13.40;99.90
35603;DHT22;21725;50.836;4.368;2023-03-24T09:24:33;13.30;99.90
35603;DHT22;21725;50.836;4.368;2023-03-24T09:27:34;13.40;99.90
35603;DHT22;21725;50.836;4.368;2023-03-24T09:30:35;13.90;99.90
35603;DHT22;21725;50.836;4.368;2023-03-24T09:33:36;13.60;99.90
35603;DHT22;21725;50.836;4.368;2023-03-24T09:36:37;13.80;99.90
35603;DHT22;21725;50.836;4.368;2023-03-24T09:39:38;13.60;99.90
35603;DHT22;21725;50.836;4.368;2023-03-24T09:42:40;13.40;99.90
35603;DHT22;21725;50.836;4.368;2023-03-24T09:45:52;13.30;99.90
35603;DHT22;21725;50.836;4.368;2023-03-24T09:48:57;13.40;99.90
35603;DHT22;21725;50.836;4.368;2023-03-24T09:52:09;13.40;99.90
35603;DHT22;21725;50.836;4.368;2023-03-24T09:55:17;13.40;99.90
35603;DHT22;21725;50.836;4.368;2023-03-24T09:58:28;13.20;99.90
35603;DHT22;21725;50.836;4.368;2023-03-24T10:01:30;13.20;99.90
35603;DHT22;21725;50.836;4.368;2023-03-24T10:04:31;13.40;99.90
35603;DHT22;21725;50.836;4.368;2023-03-24T10:07:38;13.30;99.90
35603;DHT22;21725;50.836;4.368;2023-03-24T10:20:54;14.10;99.90
35603;DHT22;21725;50.836;4.368;2023-03-24T10:27:45;14.20;99.90
35603;DHT22;21725;50.836;4.368;2023-03-24T10:30:47;14.00;99.90
35603;DHT22;21725;50.836;4.368;2023-03-24T10:33:48;14.00;99.90
35603;DHT22;21725;50.836;4.368;2023-03-24T10:36:49;14.10;99.90
35603;DHT22;21725;50.836;4.368;2023-03-24T10:39:51;14.00;99.90
35603;DHT22;21725;50.836;4.368;2023-03-24T10:42:52;14.40;99.90
35603;DHT22;21725;50.836;4.368;2023-03-24T10:45:55;14.60;99.90
35603;DHT22;21725;50.836;4.368;2023-03-24T10:49:18;14.80;99.90
35603;DHT22;21725;50.836;4.368;2023-03-24T10:52:26;14.50;99.90
35603;DHT22;21725;50.836;4.368;2023-03-24T10:55:35;14.60;99.90
35603;DHT22;21725;50.836;4.368;2023-03-24T10:58:40;14.70;99.90
35603;DHT22;21725;50.836;4.368;2023-03-24T11:01:42;14.90;99.90
35603;DHT22;21725;50.836;4.368;2023-03-24T11:25:27;14.40;99.90
35603;DHT22;21725;50.836;4.368;2023-03-24T11:28:28;14.10;99.90
35603;DHT22;21725;50.836;4.368;2023-03-24T11:31:36;14.30;99.90
35603;DHT22;21725;50.836;4.368;2023-03-24T11:34:45;14.50;99.90
35603;DHT22;21725;50.836;4.368;2023-03-24T11:37:48;14.60;99.90
35603;DHT22;21725;50.836;4.368;2023-03-24T11:40:57;14.60;99.90
35603;DHT22;21725;50.836;4.368;2023-03-24T11:44:25;15.00;99.90
35603;DHT22;21725;50.836;4.368;2023-03-24T11:47:35;15.10;99.50
35603;DHT22;21725;50.836;4.368;2023-03-24T11:50:39;14.80;99.90
35603;DHT22;21725;50.836;4.368;2023-03-24T11:53:46;15.00;99.90
35603;DHT22;21725;50.836;4.368;2023-03-24T11:56:55;15.00;99.90
35603;DHT22;21725;50.836;4.368;2023-03-24T12:13:16;15.00;99.20
35603;DHT22;21725;50.836;4.368;2023-03-24T12:17:11;14.70;99.90
35603;DHT22;21725;50.836;4.368;2023-03-24T12:26:35;14.20;99.90
35603;DHT22;21725;50.836;4.368;2023-03-24T12:36:29;14.30;99.90
35603;DHT22;21725;50.836;4.368;2023-03-24T12:43:18;14.90;99.90
35603;DHT22;21725;50.836;4.368;2023-03-24T12:53:36;14.70;99.90
35603;DHT22;21725;50.836;4.368;2023-03-24T12:56:57;14.80;99.90
35603;DHT22;21725;50.836;4.368;2023-03-24T13:00:04;15.10;99.90
35603;DHT22;21725;50.836;4.368;2023-03-24T13:03:15;15.00;99.90
35603;DHT22;21725;50.836;4.368;2023-03-24T13:13:11;14.20;99.90
35603;DHT22;21725;50.836;4.368;2023-03-24T13:16:15;13.90;99.90
35603;DHT22;21725;50.836;4.368;2023-03-24T13:19:23;13.30;99.90
35603;DHT22;21725;50.836;4.368;2023-03-24T13:22:25;13.10;99.90
35603;DHT22;21725;50.836;4.368;2023-03-24T13:25:48;13.30;99.90
35603;DHT22;21725;50.836;4.368;2023-03-24T13:39:17;13.00;99.90
35603;DHT22;21725;50.836;4.368;2023-03-24T13:42:36;13.30;99.90
35603;DHT22;21725;50.836;4.368;2023-03-24T13:45:49;13.30;99.90
35603;DHT22;21725;50.836;4.368;2023-03-24T13:48:51;13.30;99.90
35603;DHT22;21725;50.836;4.368;2023-03-24T13:51:53;13.40;99.90
35603;DHT22;21725;50.836;4.368;2023-03-24T13:54:59;13.60;99.90
35603;DHT22;21725;50.836;4.368;2023-03-24T13:58:05;13.90;99.90
35603;DHT22;21725;50.836;4.368;2023-03-24T14:14:35;14.40;99.90
35603;DHT22;21725;50.836;4.368;2023-03-24T14:17:41;14.00;99.90
35603;DHT22;21725;50.836;4.368;2023-03-24T14:20:59;13.90;99.90
35603;DHT22;21725;50.836;4.368;2023-03-24T14:24:01;13.80;99.90
35603;DHT22;21725;50.836;4.368;2023-03-24T14:30:28;14.10;99.90
35603;DHT22;21725;50.836;4.368;2023-03-24T14:33:34;14.30;99.90
35603;DHT22;21725;50.836;4.368;2023-03-24T14:36:42;14.50;99.90
35603;DHT22;21725;50.836;4.368;2023-03-24T14:39:47;14.60;99.90
35603;DHT22;21725;50.836;4.368;2023-03-24T14:42:53;14.70;99.90
35603;DHT22;21725;50.836;4.368;2023-03-24T14:46:04;14.80;99.90
35603;DHT22;21725;50.836;4.368;2023-03-24T14:52:33;14.60;99.90
35603;DHT22;21725;50.836;4.368;2023-03-24T14:55:35;14.50;99.90
35603;DHT22;21725;50.836;4.368;2023-03-24T14:58:40;14.30;99.90
35603;DHT22;21725;50.836;4.368;2023-03-24T15:01:46;14.30;99.90
35603;DHT22;21725;50.836;4.368;2023-03-24T15:08:19;13.90;99.90
35603;DHT22;21725;50.836;4.368;2023-03-24T15:11:33;13.80;99.90
35603;DHT22;21725;50.836;4.368;2023-03-24T15:14:36;14.00;99.90
35603;DHT22;21725;50.836;4.368;2023-03-24T15:17:37;13.90;99.90
35603;DHT22;21725;50.836;4.368;2023-03-24T15:20:44;13.80;99.90
35603;DHT22;21725;50.836;4.368;2023-03-24T15:23:46;13.90;99.90
35603;DHT22;21725;50.836;4.368;2023-03-24T15:26:49;14.00;99.90
35603;DHT22;21725;50.836;4.368;2023-03-24T15:29:59;13.90;99.90
35603;DHT22;21725;50.836;4.368;2023-03-24T15:33:00;14.00;99.90
35603;DHT22;21725;50.836;4.368;2023-03-24T15:36:01;14.00;99.90
35603;DHT22;21725;50.836;4.368;2023-03-24T15:39:15;14.00;99.90
35603;DHT22;21725;50.836;4.368;2023-03-24T15:42:21;14.20;99.90
35603;DHT22;21725;50.836;4.368;2023-03-24T15:45:27;14.00;99.90
35603;DHT22;21725;50.836;4.368;2023-03-24T15:48:34;13.70;99.90
35603;DHT22;21725;50.836;4.368;2023-03-24T15:54:48;13.90;99.90
35603;DHT22;21725;50.836;4.368;2023-03-24T15:57:49;14.10;99.90
35603;DHT22;21725;50.836;4.368;2023-03-24T16:04:04;14.00;99.90
35603;DHT22;21725;50.836;4.368;2023-03-24T16:07:05;13.70;99.90
35603;DHT22;21725;50.836;4.368;2023-03-24T16:10:18;13.50;99.90
35603;DHT22;21725;50.836;4.368;2023-03-24T16:13:25;13.50;99.90
35603;DHT22;21725;50.836;4.368;2023-03-24T16:16:28;13.50;99.90
35603;DHT22;21725;50.836;4.368;2023-03-24T16:19:29;13.50;99.90
35603;DHT22;21725;50.836;4.368;2023-03-24T16:22:30;13.40;99.90
35603;DHT22;21725;50.836;4.368;2023-03-24T16:25:31;13.40;99.90
35603;DHT22;21725;50.836;4.368;2023-03-24T16:28:32;13.60;99.90
35603;DHT22;21725;50.836;4.368;2023-03-24T16:31:33;13.80;99.90
35603;DHT22;21725;50.836;4.368;2023-03-24T16:34:35;14.00;99.90
35603;DHT22;21725;50.836;4.368;2023-03-24T16:37:36;14.20;99.90
35603;DHT22;21725;50.836;4.368;2023-03-24T16:40:40;14.20;99.90
35603;DHT22;21725;50.836;4.368;2023-03-24T16:43:44;14.30;99.90
35603;DHT22;21725;50.836;4.368;2023-03-24T16:46:49;14.30;99.90
35603;DHT22;21725;50.836;4.368;2023-03-24T16:49:51;14.30;99.90
35603;DHT22;21725;50.836;4.368;2023-03-24T16:52:52;14.10;99.90
35603;DHT22;21725;50.836;4.368;2023-03-24T16:55:53;13.80;99.90
35603;DHT22;21725;50.836;4.368;2023-03-24T16:58:57;13.60;99.90
35603;DHT22;21725;50.836;4.368;2023-03-24T17:25:22;11.30;99.90
35603;DHT22;21725;50.836;4.368;2023-03-24T17:28:23;11.20;99.90
35603;DHT22;21725;50.836;4.368;2023-03-24T17:31:24;11.30;99.90
35603;DHT22;21725;50.836;4.368;2023-03-24T17:34:25;11.30;99.90
35603;DHT22;21725;50.836;4.368;2023-03-24T17:37:27;11.40;99.90
35603;DHT22;21725;50.836;4.368;2023-03-24T17:40:28;11.50;99.90
35603;DHT22;21725;50.836;4.368;2023-03-24T17:43:29;11.60;99.90
35603;DHT22;21725;50.836;4.368;2023-03-24T17:46:30;11.40;99.90
35603;DHT22;21725;50.836;4.368;2023-03-24T17:49:30;11.40;99.90
35603;DHT22;21725;50.836;4.368;2023-03-24T17:52:32;11.50;99.90
35603;DHT22;21725;50.836;4.368;2023-03-24T17:55:33;11.50;99.90
35603;DHT22;21725;50.836;4.368;2023-03-24T17:58:34;11.60;99.90
35603;DHT22;21725;50.836;4.368;2023-03-24T18:01:35;11.60;99.90
35603;DHT22;21725;50.836;4.368;2023-03-24T18:04:38;11.60;99.90
35603;DHT22;21725;50.836;4.368;2023-03-24T18:07:39;11.50;99.90
35603;DHT22;21725;50.836;4.368;2023-03-24T18:10:40;11.40;99.90
35603;DHT22;21725;50.836;4.368;2023-03-24T18:13:42;11.40;99.90
35603;DHT22;21725;50.836;4.368;2023-03-24T18:16:43;11.40;99.90
35603;DHT22;21725;50.836;4.368;2023-03-24T18:19:44;11.40;99.90
35603;DHT22;21725;50.836;4.368;2023-03-24T18:22:45;11.40;99.90
35603;DHT22;21725;50.836;4.368;2023-03-24T18:25:46;11.30;99.90
35603;DHT22;21725;50.836;4.368;2023-03-24T18:28:47;11.20;99.90
35603;DHT22;21725;50.836;4.368;2023-03-24T18:31:48;11.10;99.90
35603;DHT22;21725;50.836;4.368;2023-03-24T18:34:49;11.20;99.90
35603;DHT22;21725;50.836;4.368;2023-03-24T18:37:50;11.20;99.90
35603;DHT22;21725;50.836;4.368;2023-03-24T18:41:02;11.10;99.90
35603;DHT22;21725;50.836;4.368;2023-03-24T18:44:05;11.10;99.90
35603;DHT22;21725;50.836;4.368;2023-03-24T18:47:06;11.10;99.90
35603;DHT22;21725;50.836;4.368;2023-03-24T18:50:07;11.10;99.90
35603;DHT22;21725;50.836;4.368;2023-03-24T18:53:09;11.10;99.90
35603;DHT22;21725;50.836;4.368;2023-03-24T18:56:13;11.10;99.90
35603;DHT22;21725;50.836;4.368;2023-03-24T18:59:14;11.10;99.90
35603;DHT22;21725;50.836;4.368;2023-03-24T19:02:15;11.10;99.90
35603;DHT22;21725;50.836;4.368;2023-03-24T19:05:17;11.10;99.90
35603;DHT22;21725;50.836;4.368;2023-03-24T19:08:21;11.00;99.90
35603;DHT22;21725;50.836;4.368;2023-03-24T19:11:25;11.00;99.90
35603;DHT22;21725;50.836;4.368;2023-03-24T19:14:26;10.90;99.90
35603;DHT22;21725;50.836;4.368;2023-03-24T19:17:28;10.90;99.90
35603;DHT22;21725;50.836;4.368;2023-03-24T19:20:28;10.90;99.90
35603;DHT22;21725;50.836;4.368;2023-03-24T19:23:30;10.80;99.90
35603;DHT22;21725;50.836;4.368;2023-03-24T19:26:33;10.80;99.90
35603;DHT22;21725;50.836;4.368;2023-03-24T19:29:35;10.90;99.90
35603;DHT22;21725;50.836;4.368;2023-03-24T19:32:35;10.90;99.90
35603;DHT22;21725;50.836;4.368;2023-03-24T19:35:39;10.90;99.90
35603;DHT22;21725;50.836;4.368;2023-03-24T19:38:40;11.00;99.90
35603;DHT22;21725;50.836;4.368;2023-03-24T19:41:41;11.00;99.90
35603;DHT22;21725;50.836;4.368;2023-03-24T19:44:41;10.90;99.90
35603;DHT22;21725;50.836;4.368;2023-03-24T19:47:43;10.90;99.90
35603;DHT22;21725;50.836;4.368;2023-03-24T19:50:48;10.90;99.90
35603;DHT22;21725;50.836;4.368;2023-03-24T19:53:49;11.00;99.90
35603;DHT22;21725;50.836;4.368;2023-03-24T19:56:50;11.00;99.90
35603;DHT22;21725;50.836;4.368;2023-03-24T19:59:50;11.00;99.90
35603;DHT22;21725;50.836;4.368;2023-03-24T20:02:51;11.10;99.90
35603;DHT22;21725;50.836;4.368;2023-03-24T20:05:52;11.00;99.90
35603;DHT22;21725;50.836;4.368;2023-03-24T20:08:52;11.10;99.90
35603;DHT22;21725;50.836;4.368;2023-03-24T20:11:53;10.80;99.90
35603;DHT22;21725;50.836;4.368;2023-03-24T20:14:54;10.90;99.90
35603;DHT22;21725;50.836;4.368;2023-03-24T20:17:55;10.70;99.90
35603;DHT22;21725;50.836;4.368;2023-03-24T20:20:56;10.40;99.90
35603;DHT22;21725;50.836;4.368;2023-03-24T20:23:59;10.30;99.90
35603;DHT22;21725;50.836;4.368;2023-03-24T20:27:00;10.30;99.90
35603;DHT22;21725;50.836;4.368;2023-03-24T20:30:01;10.30;99.90
35603;DHT22;21725;50.836;4.368;2023-03-24T20:33:02;10.30;99.90
35603;DHT22;21725;50.836;4.368;2023-03-24T20:36:04;10.30;99.90
35603;DHT22;21725;50.836;4.368;2023-03-24T20:39:04;10.20;99.90
35603;DHT22;21725;50.836;4.368;2023-03-24T20:42:05;10.10;99.90
35603;DHT22;21725;50.836;4.368;2023-03-24T20:45:07;10.20;99.90
35603;DHT22;21725;50.836;4.368;2023-03-24T20:48:08;10.30;99.90
35603;DHT22;21725;50.836;4.368;2023-03-24T20:51:08;10.40;99.90
35603;DHT22;21725;50.836;4.368;2023-03-24T20:54:10;10.30;99.90
35603;DHT22;21725;50.836;4.368;2023-03-24T20:57:10;10.30;99.90
35603;DHT22;21725;50.836;4.368;2023-03-24T21:00:12;10.30;99.90
35603;DHT22;21725;50.836;4.368;2023-03-24T21:03:13;10.30;99.90
35603;DHT22;21725;50.836;4.368;2023-03-24T21:06:14;10.30;99.90
35603;DHT22;21725;50.836;4.368;2023-03-24T21:09:15;10.40;99.90
35603;DHT22;21725;50.836;4.368;2023-03-24T21:12:16;10.40;99.90
35603;DHT22;21725;50.836;4.368;2023-03-24T21:15:17;10.40;99.90
35603;DHT22;21725;50.836;4.368;2023-03-24T21:18:18;10.40;99.90
35603;DHT22;21725;50.836;4.368;2023-03-24T21:21:19;10.20;99.90
35603;DHT22;21725;50.836;4.368;2023-03-24T21:24:23;11.00;99.90
35603;DHT22;21725;50.836;4.368;2023-03-24T21:27:24;10.10;99.90
35603;DHT22;21725;50.836;4.368;2023-03-24T21:30:26;10.10;99.90
35603;DHT22;21725;50.836;4.368;2023-03-24T21:33:27;10.10;99.90
35603;DHT22;21725;50.836;4.368;2023-03-24T21:36:27;10.10;99.90
35603;DHT22;21725;50.836;4.368;2023-03-24T21:39:29;10.10;99.90
35603;DHT22;21725;50.836;4.368;2023-03-24T21:42:30;10.10;99.90
35603;DHT22;21725;50.836;4.368;2023-03-24T21:45:34;10.10;99.90
35603;DHT22;21725;50.836;4.368;2023-03-24T21:48:35;10.10;99.90
35603;DHT22;21725;50.836;4.368;2023-03-24T21:51:37;10.00;99.90
35603;DHT22;21725;50.836;4.368;2023-03-24T21:54:42;10.10;99.90
35603;DHT22;21725;50.836;4.368;2023-03-24T21:57:43;10.20;99.90
35603;DHT22;21725;50.836;4.368;2023-03-24T22:00:46;10.10;99.90
35603;DHT22;21725;50.836;4.368;2023-03-24T22:03:47;10.10;99.90
35603;DHT22;21725;50.836;4.368;2023-03-24T22:06:47;10.20;99.90
35603;DHT22;21725;50.836;4.368;2023-03-24T22:09:48;10.20;99.90
35603;DHT22;21725;50.836;4.368;2023-03-24T22:12:51;10.20;99.90
35603;DHT22;21725;50.836;4.368;2023-03-24T22:18:59;10.30;99.90
35603;DHT22;21725;50.836;4.368;2023-03-24T22:22:00;10.20;99.90
35603;DHT22;21725;50.836;4.368;2023-03-24T22:25:03;10.10;99.90
35603;DHT22;21725;50.836;4.368;2023-03-24T22:28:04;10.00;99.90
35603;DHT22;21725;50.836;4.368;2023-03-24T22:31:14;10.00;99.90
35603;DHT22;21725;50.836;4.368;2023-03-24T22:34:15;10.10;99.90
35603;DHT22;21725;50.836;4.368;2023-03-24T22:37:17;10.10;99.90
35603;DHT22;21725;50.836;4.368;2023-03-24T22:40:17;10.10;99.90
35603;DHT22;21725;50.836;4.368;2023-03-24T22:43:18;10.10;99.90
35603;DHT22;21725;50.836;4.368;2023-03-24T22:46:19;10.10;99.90
35603;DHT22;21725;50.836;4.368;2023-03-24T22:49:21;10.00;99.90
35603;DHT22;21725;50.836;4.368;2023-03-24T22:52:22;10.00;99.90
35603;DHT22;21725;50.836;4.368;2023-03-24T22:55:23;9.90;99.90
35603;DHT22;21725;50.836;4.368;2023-03-24T22:58:25;9.80;99.90
35603;DHT22;21725;50.836;4.368;2023-03-24T23:01:26;9.80;99.90
35603;DHT22;21725;50.836;4.368;2023-03-24T23:26:08;9.50;99.90
35603;DHT22;21725;50.836;4.368;2023-03-24T23:29:13;9.60;99.90